sensor_id;sensor_type;location;lat;lon;timestamp;temperature;humidity
17918;DHT22;9084;50.956;3.106;2023-04-07T00:01:34;9.10;99.90
17918;DHT22;9084;50.956;3.106;2023-04-07T00:04:00;9.10;99.90
17918;DHT22;9084;50.956;3.106;2023-04-07T00:06:28;9.00;99.90
17918;DHT22;9084;50.956;3.106;2023-04-07T00:08:56;9.00;99.90
17918;DHT22;9084;50.956;3.106;2023-04-07T00:11:21;9.00;99.90
17918;DHT22;9084;50.956;3.106;2023-04-07T00:13:47;9.00;99.90
17918;DHT22;9084;50.956;3.106;2023-04-07T00:16:13;9.10;99.90
17918;DHT22;9084;50.956;3.106;2023-04-07T00:18:41;9.00;99.90
17918;DHT22;9084;50.956;3.106;2023-04-07T00:21:06;9.10;99.90
17918;DHT22;9084;50.956;3.106;2023-04-07T00:23:32;9.00;99.90
17918;DHT22;9084;50.956;3.106;2023-04-07T00:25:57;9.10;99.90
17918;DHT22;9084;50.956;3.106;2023-04-07T00:28:25;9.10;99.90
17918;DHT22;9084;50.956;3.106;2023-04-07T00:30:51;9.00;99.90
17918;DHT22;9084;50.956;3.106;2023-04-07T00:33:17;9.00;99.90
17918;DHT22;9084;50.956;3.106;2023-04-07T00:35:44;9.00;99.90
17918;DHT22;9084;50.956;3.106;2023-04-07T00:38:12;9.00;99.90
17918;DHT22;9084;50.956;3.106;2023-04-07T00:40:38;9.00;99.90
17918;DHT22;9084;50.956;3.106;2023-04-07T00:43:04;9.00;99.90
17918;DHT22;9084;50.956;3.106;2023-04-07T00:45:32;9.00;99.90
17918;DHT22;9084;50.956;3.106;2023-04-07T00:47:58;8.90;99.90
17918;DHT22;9084;50.956;3.106;2023-04-07T00:50:28;9.00;99.90
17918;DHT22;9084;50.956;3.106;2023-04-07T00:52:54;8.90;99.90
17918;DHT22;9084;50.956;3.106;2023-04-07T00:55:21;8.90;99.90
17918;DHT22;9084;50.956;3.106;2023-04-07T00:57:47;8.90;99.90
17918;DHT22;9084;50.956;3.106;2023-04-07T01:00:13;8.80;99.90
17918;DHT22;9084;50.956;3.106;2023-04-07T01:02:54;8.80;99.90
17918;DHT22;9084;50.956;3.106;2023-04-07T01:11:07;8.60;99.90
17918;DHT22;9084;50.956;3.106;2023-04-07T01:13:41;8.70;99.90
17918;DHT22;9084;50.956;3.106;2023-04-07T01:16:14;8.60;99.90
17918;DHT22;9084;50.956;3.106;2023-04-07T01:18:45;8.60;99.90
17918;DHT22;9084;50.956;3.106;2023-04-07T01:21:17;8.60;99.90
17918;DHT22;9084;50.956;3.106;2023-04-07T01:23:58;8.50;99.90
17918;DHT22;9084;50.956;3.106;2023-04-07T01:26:31;8.60;99.90
17918;DHT22;9084;50.956;3.106;2023-04-07T01:31:33;8.60;99.90
17918;DHT22;9084;50.956;3.106;2023-04-07T01:34:01;8.60;99.90
17918;DHT22;9084;50.956;3.106;2023-04-07T01:36:32;8.60;99.90
17918;DHT22;9084;50.956;3.106;2023-04-07T01:38:59;8.60;99.90
17918;DHT22;9084;50.956;3.106;2023-04-07T01:41:26;8.60;99.90
17918;DHT22;9084;50.956;3.106;2023-04-07T01:43:53;8.60;99.90
17918;DHT22;9084;50.956;3.106;2023-04-07T01:46:19;8.50;99.90
17918;DHT22;9084;50.956;3.106;2023-04-07T01:48:47;8.50;99.90
17918;DHT22;9084;50.956;3.106;2023-04-07T01:51:13;8.50;99.90
17918;DHT22;9084;50.956;3.106;2023-04-07T01:53:45;8.50;99.90
17918;DHT22;9084;50.956;3.106;2023-04-07T01:56:14;8.50;99.90
17918;DHT22;9084;50.956;3.106;2023-04-07T01:58:41;8.50;99.90
17918;DHT22;9084;50.956;3.106;2023-04-07T02:01:11;8.50;99.90
17918;DHT22;9084;50.956;3.106;2023-04-07T02:03:51;8.40;99.90
17918;DHT22;9084;50.956;3.106;2023-04-07T02:06:26;8.50;99.90
17918;DHT22;9084;50.956;3.106;2023-04-07T02:08:57;8.40;99.90
17918;DHT22;9084;50.956;3.106;2023-04-07T02:11:28;8.50;99.90
17918;DHT22;9084;50.956;3.106;2023-04-07T02:13:56;8.50;99.90
17918;DHT22;9084;50.956;3.106;2023-04-07T02:16:24;8.40;99.90
17918;DHT22;9084;50.956;3.106;2023-04-07T02:18:52;8.40;99.90
17918;DHT22;9084;50.956;3.106;2023-04-07T02:21:19;8.50;99.90
17918;DHT22;9084;50.956;3.106;2023-04-07T02:23:47;8.40;99.90
17918;DHT22;9084;50.956;3.106;2023-04-07T02:26:13;8.40;99.90
17918;DHT22;9084;50.956;3.106;2023-04-07T02:28:39;8.40;99.90
17918;DHT22;9084;50.956;3.106;2023-04-07T02:31:05;8.30;99.90
17918;DHT22;9084;50.956;3.106;2023-04-07T02:33:30;8.30;99.90
17918;DHT22;9084;50.956;3.106;2023-04-07T02:35:58;8.30;99.90
17918;DHT22;9084;50.956;3.106;2023-04-07T02:38:24;8.30;99.90
17918;DHT22;9084;50.956;3.106;2023-04-07T02:40:50;8.30;99.90
17918;DHT22;9084;50.956;3.106;2023-04-07T02:43:15;8.30;99.90
17918;DHT22;9084;50.956;3.106;2023-04-07T02:45:43;8.20;99.90
17918;DHT22;9084;50.956;3.106;2023-04-07T02:48:09;8.20;99.90
17918;DHT22;9084;50.956;3.106;2023-04-07T02:50:37;8.20;99.90
17918;DHT22;9084;50.956;3.106;2023-04-07T02:53:03;8.10;99.90
17918;DHT22;9084;50.956;3.106;2023-04-07T02:55:28;8.10;99.90
17918;DHT22;9084;50.956;3.106;2023-04-07T02:57:56;8.10;99.90
17918;DHT22;9084;50.956;3.106;2023-04-07T03:00:24;8.10;99.90
17918;DHT22;9084;50.956;3.106;2023-04-07T03:02:50;8.10;99.90
17918;DHT22;9084;50.956;3.106;2023-04-07T03:05:18;8.10;99.90
17918;DHT22;9084;50.956;3.106;2023-04-07T03:07:46;8.00;99.90
17918;DHT22;9084;50.956;3.106;2023-04-07T03:10:11;8.10;99.90
17918;DHT22;9084;50.956;3.106;2023-04-07T03:12:39;8.00;99.90
17918;DHT22;9084;50.956;3.106;2023-04-07T03:15:05;8.00;99.90
17918;DHT22;9084;50.956;3.106;2023-04-07T03:17:32;8.00;99.90
17918;DHT22;9084;50.956;3.106;2023-04-07T03:20:00;8.00;99.90
17918;DHT22;9084;50.956;3.106;2023-04-07T03:22:28;7.90;99.90
17918;DHT22;9084;50.956;3.106;2023-04-07T03:24:56;7.90;99.90
17918;DHT22;9084;50.956;3.106;2023-04-07T03:27:21;7.90;99.90
17918;DHT22;9084;50.956;3.106;2023-04-07T03:29:49;7.90;99.90
17918;DHT22;9084;50.956;3.106;2023-04-07T03:32:15;7.80;99.90
17918;DHT22;9084;50.956;3.106;2023-04-07T03:34:44;7.80;99.90
17918;DHT22;9084;50.956;3.106;2023-04-07T03:37:09;7.70;99.90
17918;DHT22;9084;50.956;3.106;2023-04-07T03:39:40;7.70;99.90
17918;DHT22;9084;50.956;3.106;2023-04-07T03:42:06;7.60;99.90
17918;DHT22;9084;50.956;3.106;2023-04-07T03:44:36;7.60;99.90
17918;DHT22;9084;50.956;3.106;2023-04-07T03:47:04;7.60;99.90
17918;DHT22;9084;50.956;3.106;2023-04-07T03:49:29;7.50;99.90
17918;DHT22;9084;50.956;3.106;2023-04-07T03:51:58;7.50;99.90
17918;DHT22;9084;50.956;3.106;2023-04-07T03:54:23;7.50;99.90
17918;DHT22;9084;50.956;3.106;2023-04-07T03:56:52;7.40;99.90
17918;DHT22;9084;50.956;3.106;2023-04-07T03:59:22;7.40;99.90
17918;DHT22;9084;50.956;3.106;2023-04-07T04:01:50;7.40;99.90
17918;DHT22;9084;50.956;3.106;2023-04-07T04:04:18;7.30;99.90
17918;DHT22;9084;50.956;3.106;2023-04-07T04:06:48;7.30;99.90
17918;DHT22;9084;50.956;3.106;2023-04-07T04:09:16;7.20;99.90
17918;DHT22;9084;50.956;3.106;2023-04-07T04:11:47;7.20;99.90
17918;DHT22;9084;50.956;3.106;2023-04-07T04:14:15;7.20;99.90
17918;DHT22;9084;50.956;3.106;2023-04-07T04:16:41;7.10;99.90
17918;DHT22;9084;50.956;3.106;2023-04-07T04:19:06;7.10;99.90
17918;DHT22;9084;50.956;3.106;2023-04-07T04:21:32;7.00;99.90
17918;DHT22;9084;50.956;3.106;2023-04-07T04:23:59;7.00;99.90
17918;DHT22;9084;50.956;3.106;2023-04-07T04:26:28;7.00;99.90
17918;DHT22;9084;50.956;3.106;2023-04-07T04:28:56;6.90;99.90
17918;DHT22;9084;50.956;3.106;2023-04-07T04:31:24;6.90;99.90
17918;DHT22;9084;50.956;3.106;2023-04-07T04:33:52;6.90;99.90
17918;DHT22;9084;50.956;3.106;2023-04-07T04:36:17;6.90;99.90
17918;DHT22;9084;50.956;3.106;2023-04-07T04:38:43;6.90;99.90
17918;DHT22;9084;50.956;3.106;2023-04-07T04:41:08;6.80;99.90
17918;DHT22;9084;50.956;3.106;2023-04-07T04:43:34;6.80;99.90
17918;DHT22;9084;50.956;3.106;2023-04-07T04:46:02;6.80;99.90
17918;DHT22;9084;50.956;3.106;2023-04-07T04:48:30;6.80;99.90
17918;DHT22;9084;50.956;3.106;2023-04-07T04:50:56;6.70;99.90
17918;DHT22;9084;50.956;3.106;2023-04-07T04:53:21;6.70;99.90
17918;DHT22;9084;50.956;3.106;2023-04-07T04:55:47;6.70;99.90
17918;DHT22;9084;50.956;3.106;2023-04-07T04:58:19;6.70;99.90
17918;DHT22;9084;50.956;3.106;2023-04-07T05:00:45;6.60;99.90
17918;DHT22;9084;50.956;3.106;2023-04-07T05:03:10;6.60;99.90
17918;DHT22;9084;50.956;3.106;2023-04-07T05:05:38;6.60;99.90
17918;DHT22;9084;50.956;3.106;2023-04-07T05:08:09;6.60;99.90
17918;DHT22;9084;50.956;3.106;2023-04-07T05:10:38;6.50;99.90
17918;DHT22;9084;50.956;3.106;2023-04-07T05:13:04;6.50;99.90
17918;DHT22;9084;50.956;3.106;2023-04-07T05:15:30;6.50;99.90
17918;DHT22;9084;50.956;3.106;2023-04-07T05:17:58;6.50;99.90
17918;DHT22;9084;50.956;3.106;2023-04-07T05:20:23;6.50;99.90
17918;DHT22;9084;50.956;3.106;2023-04-07T05:22:52;6.50;99.90
17918;DHT22;9084;50.956;3.106;2023-04-07T05:25:22;6.50;99.90
17918;DHT22;9084;50.956;3.106;2023-04-07T05:27:50;6.50;99.90
17918;DHT22;9084;50.956;3.106;2023-04-07T05:30:15;6.50;99.90
17918;DHT22;9084;50.956;3.106;2023-04-07T05:32:41;6.50;99.90
17918;DHT22;9084;50.956;3.106;2023-04-07T05:35:09;6.50;99.90
17918;DHT22;9084;50.956;3.106;2023-04-07T05:37:35;6.50;99.90
17918;DHT22;9084;50.956;3.106;2023-04-07T05:40:03;6.60;99.90
17918;DHT22;9084;50.956;3.106;2023-04-07T05:42:28;6.60;99.90
17918;DHT22;9084;50.956;3.106;2023-04-07T05:44:54;6.70;99.90
17918;DHT22;9084;50.956;3.106;2023-04-07T05:47:22;6.80;99.90
17918;DHT22;9084;50.956;3.106;2023-04-07T05:49:50;6.90;99.90
17918;DHT22;9084;50.956;3.106;2023-04-07T05:52:16;7.10;99.90
17918;DHT22;9084;50.956;3.106;2023-04-07T05:54:48;7.10;99.90
17918;DHT22;9084;50.956;3.106;2023-04-07T05:57:16;7.20;99.90
17918;DHT22;9084;50.956;3.106;2023-04-07T05:59:42;7.30;99.90
17918;DHT22;9084;50.956;3.106;2023-04-07T06:02:07;7.40;99.90
17918;DHT22;9084;50.956;3.106;2023-04-07T06:04:33;7.40;99.90
17918;DHT22;9084;50.956;3.106;2023-04-07T06:07:00;7.50;99.90
17918;DHT22;9084;50.956;3.106;2023-04-07T06:09:26;7.60;99.90
17918;DHT22;9084;50.956;3.106;2023-04-07T06:11:53;7.70;99.90
17918;DHT22;9084;50.956;3.106;2023-04-07T06:14:19;7.80;99.90
17918;DHT22;9084;50.956;3.106;2023-04-07T06:16:45;7.90;99.90
17918;DHT22;9084;50.956;3.106;2023-04-07T06:19:10;7.90;99.90
17918;DHT22;9084;50.956;3.106;2023-04-07T06:21:41;8.00;99.90
17918;DHT22;9084;50.956;3.106;2023-04-07T06:24:07;8.00;99.90
17918;DHT22;9084;50.956;3.106;2023-04-07T06:26:32;8.00;99.90
17918;DHT22;9084;50.956;3.106;2023-04-07T06:28:58;8.00;99.90
17918;DHT22;9084;50.956;3.106;2023-04-07T06:31:27;8.10;99.90
17918;DHT22;9084;50.956;3.106;2023-04-07T06:33:52;8.10;99.90
17918;DHT22;9084;50.956;3.106;2023-04-07T06:36:19;8.20;99.90
17918;DHT22;9084;50.956;3.106;2023-04-07T06:38:47;8.30;99.90
17918;DHT22;9084;50.956;3.106;2023-04-07T06:41:15;8.40;99.90
17918;DHT22;9084;50.956;3.106;2023-04-07T06:43:47;8.40;99.90
17918;DHT22;9084;50.956;3.106;2023-04-07T06:46:13;8.40;99.90
17918;DHT22;9084;50.956;3.106;2023-04-07T06:48:39;8.40;99.90
17918;DHT22;9084;50.956;3.106;2023-04-07T06:51:09;8.50;99.90
17918;DHT22;9084;50.956;3.106;2023-04-07T06:53:35;8.50;99.90
17918;DHT22;9084;50.956;3.106;2023-04-07T06:56:09;8.70;99.90
17918;DHT22;9084;50.956;3.106;2023-04-07T06:58:35;8.80;99.90
17918;DHT22;9084;50.956;3.106;2023-04-07T07:01:01;8.80;99.90
17918;DHT22;9084;50.956;3.106;2023-04-07T07:03:29;9.00;99.90
17918;DHT22;9084;50.956;3.106;2023-04-07T07:05:56;9.10;99.90
17918;DHT22;9084;50.956;3.106;2023-04-07T07:08:22;9.20;99.90
17918;DHT22;9084;50.956;3.106;2023-04-07T07:10:53;9.20;99.90
17918;DHT22;9084;50.956;3.106;2023-04-07T07:13:23;9.30;99.90
17918;DHT22;9084;50.956;3.106;2023-04-07T07:15:51;9.30;99.90
17918;DHT22;9084;50.956;3.106;2023-04-07T07:18:17;9.40;99.90
17918;DHT22;9084;50.956;3.106;2023-04-07T07:20:43;9.50;99.90
17918;DHT22;9084;50.956;3.106;2023-04-07T07:23:08;9.50;99.90
17918;DHT22;9084;50.956;3.106;2023-04-07T07:25:36;9.50;99.90
17918;DHT22;9084;50.956;3.106;2023-04-07T07:28:02;9.60;99.90
17918;DHT22;9084;50.956;3.106;2023-04-07T07:30:27;9.60;99.90
17918;DHT22;9084;50.956;3.106;2023-04-07T07:32:54;9.70;99.90
17918;DHT22;9084;50.956;3.106;2023-04-07T07:35:24;9.80;99.90
17918;DHT22;9084;50.956;3.106;2023-04-07T07:37:49;9.90;99.90
17918;DHT22;9084;50.956;3.106;2023-04-07T07:40:16;10.00;99.90
17918;DHT22;9084;50.956;3.106;2023-04-07T07:42:44;10.10;99.90
17918;DHT22;9084;50.956;3.106;2023-04-07T07:45:10;10.20;99.90
17918;DHT22;9084;50.956;3.106;2023-04-07T07:47:37;10.30;99.90
17918;DHT22;9084;50.956;3.106;2023-04-07T07:50:04;10.30;99.90
17918;DHT22;9084;50.956;3.106;2023-04-07T07:52:30;10.30;99.90
17918;DHT22;9084;50.956;3.106;2023-04-07T07:54:55;10.30;99.90
17918;DHT22;9084;50.956;3.106;2023-04-07T07:57:23;10.40;99.90
17918;DHT22;9084;50.956;3.106;2023-04-07T07:59:49;10.50;99.90
17918;DHT22;9084;50.956;3.106;2023-04-07T08:02:15;10.50;99.90
17918;DHT22;9084;50.956;3.106;2023-04-07T08:04:42;10.60;99.90
17918;DHT22;9084;50.956;3.106;2023-04-07T08:07:11;10.80;99.90
17918;DHT22;9084;50.956;3.106;2023-04-07T08:09:37;11.00;99.90
17918;DHT22;9084;50.956;3.106;2023-04-07T08:12:02;11.10;99.90
17918;DHT22;9084;50.956;3.106;2023-04-07T08:14:28;11.30;99.90
17918;DHT22;9084;50.956;3.106;2023-04-07T08:16:55;11.40;99.90
17918;DHT22;9084;50.956;3.106;2023-04-07T08:19:20;11.50;99.90
17918;DHT22;9084;50.956;3.106;2023-04-07T08:21:46;11.50;99.90
17918;DHT22;9084;50.956;3.106;2023-04-07T08:24:16;11.50;99.90
17918;DHT22;9084;50.956;3.106;2023-04-07T08:26:42;11.50;99.90
17918;DHT22;9084;50.956;3.106;2023-04-07T08:29:07;11.50;99.90
17918;DHT22;9084;50.956;3.106;2023-04-07T08:31:35;11.30;99.90
17918;DHT22;9084;50.956;3.106;2023-04-07T08:34:03;11.10;99.90
17918;DHT22;9084;50.956;3.106;2023-04-07T08:36:31;10.80;99.90
17918;DHT22;9084;50.956;3.106;2023-04-07T08:38:57;10.60;99.90
17918;DHT22;9084;50.956;3.106;2023-04-07T08:41:33;10.40;99.90
17918;DHT22;9084;50.956;3.106;2023-04-07T08:44:03;10.20;99.90
17918;DHT22;9084;50.956;3.106;2023-04-07T08:46:32;10.00;99.90
17918;DHT22;9084;50.956;3.106;2023-04-07T08:48:59;9.90;99.90
17918;DHT22;9084;50.956;3.106;2023-04-07T08:51:30;9.80;99.90
17918;DHT22;9084;50.956;3.106;2023-04-07T08:54:11;9.90;99.90
17918;DHT22;9084;50.956;3.106;2023-04-07T08:56:41;9.90;99.90
17918;DHT22;9084;50.956;3.106;2023-04-07T08:59:13;9.90;99.90
17918;DHT22;9084;50.956;3.106;2023-04-07T09:01:40;10.00;99.90
17918;DHT22;9084;50.956;3.106;2023-04-07T09:04:15;10.20;99.90
17918;DHT22;9084;50.956;3.106;2023-04-07T09:06:42;10.50;99.90
17918;DHT22;9084;50.956;3.106;2023-04-07T09:09:08;10.90;99.90
17918;DHT22;9084;50.956;3.106;2023-04-07T09:11:38;11.20;99.90
17918;DHT22;9084;50.956;3.106;2023-04-07T09:14:05;11.30;99.90
17918;DHT22;9084;50.956;3.106;2023-04-07T09:16:31;11.30;99.90
17918;DHT22;9084;50.956;3.106;2023-04-07T09:18:59;11.30;99.90
17918;DHT22;9084;50.956;3.106;2023-04-07T09:21:25;11.10;99.90
17918;DHT22;9084;50.956;3.106;2023-04-07T09:23:51;11.10;99.90
17918;DHT22;9084;50.956;3.106;2023-04-07T09:28:54;11.10;99.90
17918;DHT22;9084;50.956;3.106;2023-04-07T09:31:21;11.00;99.90
17918;DHT22;9084;50.956;3.106;2023-04-07T09:33:48;10.90;99.90
17918;DHT22;9084;50.956;3.106;2023-04-07T09:36:14;10.70;99.90
17918;DHT22;9084;50.956;3.106;2023-04-07T09:38:43;10.60;99.90
17918;DHT22;9084;50.956;3.106;2023-04-07T09:41:14;10.60;99.90
17918;DHT22;9084;50.956;3.106;2023-04-07T09:43:42;10.70;99.90
17918;DHT22;9084;50.956;3.106;2023-04-07T09:46:11;10.80;99.90
17918;DHT22;9084;50.956;3.106;2023-04-07T09:48:43;10.90;99.90
17918;DHT22;9084;50.956;3.106;2023-04-07T09:51:12;11.00;99.90
17918;DHT22;9084;50.956;3.106;2023-04-07T09:53:46;11.00;99.90
17918;DHT22;9084;50.956;3.106;2023-04-07T09:56:14;11.00;99.90
17918;DHT22;9084;50.956;3.106;2023-04-07T09:58:43;11.00;99.90
17918;DHT22;9084;50.956;3.106;2023-04-07T10:01:10;10.90;99.90
17918;DHT22;9084;50.956;3.106;2023-04-07T10:03:37;10.80;99.90
17918;DHT22;9084;50.956;3.106;2023-04-07T10:06:03;10.80;99.90
17918;DHT22;9084;50.956;3.106;2023-04-07T10:08:34;10.70;99.90
17918;DHT22;9084;50.956;3.106;2023-04-07T10:11:05;10.80;99.90
17918;DHT22;9084;50.956;3.106;2023-04-07T10:13:35;10.80;99.90
17918;DHT22;9084;50.956;3.106;2023-04-07T10:16:06;11.00;99.90
17918;DHT22;9084;50.956;3.106;2023-04-07T10:18:34;11.20;99.90
17918;DHT22;9084;50.956;3.106;2023-04-07T10:21:06;11.40;99.90
17918;DHT22;9084;50.956;3.106;2023-04-07T10:26:26;12.10;99.90
17918;DHT22;9084;50.956;3.106;2023-04-07T10:29:04;12.20;99.90
17918;DHT22;9084;50.956;3.106;2023-04-07T10:31:31;12.00;99.90
17918;DHT22;9084;50.956;3.106;2023-04-07T10:33:59;11.70;99.90
17918;DHT22;9084;50.956;3.106;2023-04-07T10:36:28;11.70;99.90
17918;DHT22;9084;50.956;3.106;2023-04-07T10:41:39;11.60;99.90
17918;DHT22;9084;50.956;3.106;2023-04-07T10:44:07;11.70;99.90
17918;DHT22;9084;50.956;3.106;2023-04-07T10:49:15;11.80;99.90
17918;DHT22;9084;50.956;3.106;2023-04-07T10:51:42;12.00;99.90
17918;DHT22;9084;50.956;3.106;2023-04-07T10:59:28;12.30;99.90
17918;DHT22;9084;50.956;3.106;2023-04-07T11:04:40;12.30;99.90
17918;DHT22;9084;50.956;3.106;2023-04-07T11:07:08;12.20;99.90
17918;DHT22;9084;50.956;3.106;2023-04-07T11:09:39;12.30;99.90
17918;DHT22;9084;50.956;3.106;2023-04-07T11:12:05;12.30;99.90
17918;DHT22;9084;50.956;3.106;2023-04-07T11:14:34;12.40;99.90
17918;DHT22;9084;50.956;3.106;2023-04-07T11:17:02;12.30;99.90
17918;DHT22;9084;50.956;3.106;2023-04-07T11:19:29;12.20;99.90
17918;DHT22;9084;50.956;3.106;2023-04-07T11:22:16;12.30;99.90
17918;DHT22;9084;50.956;3.106;2023-04-07T11:24:44;12.30;99.90
17918;DHT22;9084;50.956;3.106;2023-04-07T11:27:15;12.50;99.90
17918;DHT22;9084;50.956;3.106;2023-04-07T11:29:43;12.60;99.90
17918;DHT22;9084;50.956;3.106;2023-04-07T11:32:09;12.60;99.90
17918;DHT22;9084;50.956;3.106;2023-04-07T11:34:37;12.50;99.90
17918;DHT22;9084;50.956;3.106;2023-04-07T11:37:24;12.40;99.90
17918;DHT22;9084;50.956;3.106;2023-04-07T11:39:57;12.20;99.90
17918;DHT22;9084;50.956;3.106;2023-04-07T11:42:34;12.20;99.90
17918;DHT22;9084;50.956;3.106;2023-04-07T11:45:00;12.40;99.90
17918;DHT22;9084;50.956;3.106;2023-04-07T11:50:00;12.60;99.90
17918;DHT22;9084;50.956;3.106;2023-04-07T11:52:26;12.60;94.30
17918;DHT22;9084;50.956;3.106;2023-04-07T11:54:53;12.60;98.30
17918;DHT22;9084;50.956;3.106;2023-04-07T11:57:25;12.60;98.30
17918;DHT22;9084;50.956;3.106;2023-04-07T12:00:05;12.60;90.10
17918;DHT22;9084;50.956;3.106;2023-04-07T12:02:32;12.60;90.10
17918;DHT22;9084;50.956;3.106;2023-04-07T12:05:01;12.60;90.90
17918;DHT22;9084;50.956;3.106;2023-04-07T12:07:29;12.60;75.70
17918;DHT22;9084;50.956;3.106;2023-04-07T12:09:55;12.60;76.30
17918;DHT22;9084;50.956;3.106;2023-04-07T12:12:28;12.70;74.90
17918;DHT22;9084;50.956;3.106;2023-04-07T12:14:54;12.80;91.60
17918;DHT22;9084;50.956;3.106;2023-04-07T12:17:24;12.70;76.50
17918;DHT22;9084;50.956;3.106;2023-04-07T12:19:51;12.80;83.70
17918;DHT22;9084;50.956;3.106;2023-04-07T12:22:17;12.80;75.80
17918;DHT22;9084;50.956;3.106;2023-04-07T12:24:45;12.90;62.50
17918;DHT22;9084;50.956;3.106;2023-04-07T12:27:13;13.00;43.90
17918;DHT22;9084;50.956;3.106;2023-04-07T12:29:41;13.00;13.50
17918;DHT22;9084;50.956;3.106;2023-04-07T12:32:13;13.00;11.60
17918;DHT22;9084;50.956;3.106;2023-04-07T12:34:38;13.10;8.70
17918;DHT22;9084;50.956;3.106;2023-04-07T12:37:04;13.10;14.90
17918;DHT22;9084;50.956;3.106;2023-04-07T12:39:30;13.10;14.10
17918;DHT22;9084;50.956;3.106;2023-04-07T12:41:56;13.10;11.30
17918;DHT22;9084;50.956;3.106;2023-04-07T12:44:24;13.20;15.30
17918;DHT22;9084;50.956;3.106;2023-04-07T12:46:49;13.30;99.90
17918;DHT22;9084;50.956;3.106;2023-04-07T12:49:15;13.40;99.90
17918;DHT22;9084;50.956;3.106;2023-04-07T12:51:43;13.30;99.90
17918;DHT22;9084;50.956;3.106;2023-04-07T12:54:11;13.20;99.90
17918;DHT22;9084;50.956;3.106;2023-04-07T12:56:37;12.90;99.90
17918;DHT22;9084;50.956;3.106;2023-04-07T12:59:02;12.70;99.90
17918;DHT22;9084;50.956;3.106;2023-04-07T13:01:28;12.40;99.90
17918;DHT22;9084;50.956;3.106;2023-04-07T13:03:54;12.30;99.90
17918;DHT22;9084;50.956;3.106;2023-04-07T13:06:24;12.30;99.90
17918;DHT22;9084;50.956;3.106;2023-04-07T13:08:54;12.30;99.90
17918;DHT22;9084;50.956;3.106;2023-04-07T13:11:23;12.20;99.90
17918;DHT22;9084;50.956;3.106;2023-04-07T13:13:48;12.10;99.90
17918;DHT22;9084;50.956;3.106;2023-04-07T13:16:18;12.00;99.90
17918;DHT22;9084;50.956;3.106;2023-04-07T13:18:44;12.00;99.90
17918;DHT22;9084;50.956;3.106;2023-04-07T13:21:12;12.10;99.90
17918;DHT22;9084;50.956;3.106;2023-04-07T13:23:41;12.20;99.90
17918;DHT22;9084;50.956;3.106;2023-04-07T13:26:07;12.20;99.90
17918;DHT22;9084;50.956;3.106;2023-04-07T13:28:34;12.10;99.90
17918;DHT22;9084;50.956;3.106;2023-04-07T13:31:03;12.00;99.90
17918;DHT22;9084;50.956;3.106;2023-04-07T13:33:31;11.90;99.90
17918;DHT22;9084;50.956;3.106;2023-04-07T13:35:56;11.70;99.90
17918;DHT22;9084;50.956;3.106;2023-04-07T13:38:22;11.60;99.90
17918;DHT22;9084;50.956;3.106;2023-04-07T13:40:50;11.50;99.90
17918;DHT22;9084;50.956;3.106;2023-04-07T13:43:16;11.40;99.90
17918;DHT22;9084;50.956;3.106;2023-04-07T13:45:43;11.30;99.90
17918;DHT22;9084;50.956;3.106;2023-04-07T13:48:08;11.20;99.90
17918;DHT22;9084;50.956;3.106;2023-04-07T13:50:37;11.20;99.90
17918;DHT22;9084;50.956;3.106;2023-04-07T13:53:03;11.20;99.90
17918;DHT22;9084;50.956;3.106;2023-04-07T13:55:31;11.30;99.90
17918;DHT22;9084;50.956;3.106;2023-04-07T13:57:56;11.40;99.90
17918;DHT22;9084;50.956;3.106;2023-04-07T14:00:24;11.50;99.90
17918;DHT22;9084;50.956;3.106;2023-04-07T14:02:50;11.60;99.90
17918;DHT22;9084;50.956;3.106;2023-04-07T14:05:18;11.60;99.90
17918;DHT22;9084;50.956;3.106;2023-04-07T14:07:43;11.40;99.90
17918;DHT22;9084;50.956;3.106;2023-04-07T14:10:09;11.20;99.90
17918;DHT22;9084;50.956;3.106;2023-04-07T14:12:35;11.00;99.90
17918;DHT22;9084;50.956;3.106;2023-04-07T14:15:01;10.70;99.90
17918;DHT22;9084;50.956;3.106;2023-04-07T14:17:30;10.50;99.90
17918;DHT22;9084;50.956;3.106;2023-04-07T14:19:58;10.40;99.90
17918;DHT22;9084;50.956;3.106;2023-04-07T14:22:24;10.40;99.90
17918;DHT22;9084;50.956;3.106;2023-04-07T14:24:49;10.50;99.90
17918;DHT22;9084;50.956;3.106;2023-04-07T14:27:15;10.60;99.90
17918;DHT22;9084;50.956;3.106;2023-04-07T14:29:48;10.70;99.90
17918;DHT22;9084;50.956;3.106;2023-04-07T14:32:15;10.80;99.90
17918;DHT22;9084;50.956;3.106;2023-04-07T14:34:42;11.00;99.90
17918;DHT22;9084;50.956;3.106;2023-04-07T14:37:10;11.30;99.90
17918;DHT22;9084;50.956;3.106;2023-04-07T14:39:38;11.50;99.90
17918;DHT22;9084;50.956;3.106;2023-04-07T14:42:06;11.70;99.90
17918;DHT22;9084;50.956;3.106;2023-04-07T14:44:32;11.90;99.90
17918;DHT22;9084;50.956;3.106;2023-04-07T14:46:58;11.90;99.90
17918;DHT22;9084;50.956;3.106;2023-04-07T14:49:23;12.10;99.90
17918;DHT22;9084;50.956;3.106;2023-04-07T14:51:52;12.10;99.90
17918;DHT22;9084;50.956;3.106;2023-04-07T14:54:25;12.10;99.90
17918;DHT22;9084;50.956;3.106;2023-04-07T14:56:51;12.20;99.90
17918;DHT22;9084;50.956;3.106;2023-04-07T14:59:16;12.10;99.90
17918;DHT22;9084;50.956;3.106;2023-04-07T15:01:42;12.10;99.90
17918;DHT22;9084;50.956;3.106;2023-04-07T15:04:07;12.10;99.90
17918;DHT22;9084;50.956;3.106;2023-04-07T15:06:33;12.10;99.90
17918;DHT22;9084;50.956;3.106;2023-04-07T15:08:59;12.10;99.90
17918;DHT22;9084;50.956;3.106;2023-04-07T15:11:27;12.10;99.90
17918;DHT22;9084;50.956;3.106;2023-04-07T15:13:55;12.10;99.90
17918;DHT22;9084;50.956;3.106;2023-04-07T15:16:20;12.00;99.90
17918;DHT22;9084;50.956;3.106;2023-04-07T15:18:47;12.10;99.90
17918;DHT22;9084;50.956;3.106;2023-04-07T15:21:13;12.10;99.90
17918;DHT22;9084;50.956;3.106;2023-04-07T15:23:45;12.20;99.90
17918;DHT22;9084;50.956;3.106;2023-04-07T15:26:11;12.30;99.90
17918;DHT22;9084;50.956;3.106;2023-04-07T15:28:37;12.40;99.90
17918;DHT22;9084;50.956;3.106;2023-04-07T15:31:03;12.40;99.90
17918;DHT22;9084;50.956;3.106;2023-04-07T15:33:39;12.30;99.90
17918;DHT22;9084;50.956;3.106;2023-04-07T15:36:06;12.20;99.90
17918;DHT22;9084;50.956;3.106;2023-04-07T15:38:38;12.00;99.90
17918;DHT22;9084;50.956;3.106;2023-04-07T15:41:07;12.00;99.90
17918;DHT22;9084;50.956;3.106;2023-04-07T15:43:35;11.90;99.90
17918;DHT22;9084;50.956;3.106;2023-04-07T15:46:01;11.80;99.90
17918;DHT22;9084;50.956;3.106;2023-04-07T15:48:27;11.70;99.90
17918;DHT22;9084;50.956;3.106;2023-04-07T15:50:53;11.80;99.90
17918;DHT22;9084;50.956;3.106;2023-04-07T15:53:20;11.70;99.90
17918;DHT22;9084;50.956;3.106;2023-04-07T15:55:46;11.70;99.90
17918;DHT22;9084;50.956;3.106;2023-04-07T15:58:14;11.70;99.90
17918;DHT22;9084;50.956;3.106;2023-04-07T16:00:40;11.80;99.90
17918;DHT22;9084;50.956;3.106;2023-04-07T16:03:05;11.90;99.90
17918;DHT22;9084;50.956;3.106;2023-04-07T16:05:31;12.00;99.90
17918;DHT22;9084;50.956;3.106;2023-04-07T16:07:57;12.00;99.90
17918;DHT22;9084;50.956;3.106;2023-04-07T16:10:23;12.10;99.90
17918;DHT22;9084;50.956;3.106;2023-04-07T16:12:51;12.30;99.90
17918;DHT22;9084;50.956;3.106;2023-04-07T16:15:16;12.50;99.90
17918;DHT22;9084;50.956;3.106;2023-04-07T16:17:46;12.50;99.90
17918;DHT22;9084;50.956;3.106;2023-04-07T16:20:14;12.40;99.90
17918;DHT22;9084;50.956;3.106;2023-04-07T16:22:41;12.30;99.90
17918;DHT22;9084;50.956;3.106;2023-04-07T16:25:14;12.20;99.90
17918;DHT22;9084;50.956;3.106;2023-04-07T16:27:43;12.30;99.90